sensor_id;sensor_type;location;lat;lon;timestamp;temperature;humidity
20732;DHT22;10527;52.124;5.196;2022-09-09T00:05:29;17.70;99.90
20732;DHT22;10527;52.124;5.196;2022-09-09T00:07:45;17.60;99.90
20732;DHT22;10527;52.124;5.196;2022-09-09T00:10:37;17.60;99.90
20732;DHT22;10527;52.124;5.196;2022-09-09T00:13:29;17.70;99.90
20732;DHT22;10527;52.124;5.196;2022-09-09T00:16:17;17.60;99.90
20732;DHT22;10527;52.124;5.196;2022-09-09T00:21:24;17.50;99.90
20732;DHT22;10527;52.124;5.196;2022-09-09T00:23:59;17.50;99.90
20732;DHT22;10527;52.124;5.196;2022-09-09T00:26:42;17.40;99.90
20732;DHT22;10527;52.124;5.196;2022-09-09T00:29:56;17.40;99.90
20732;DHT22;10527;52.124;5.196;2022-09-09T00:32:29;17.40;99.90
20732;DHT22;10527;52.124;5.196;2022-09-09T00:35:18;17.30;99.90
20732;DHT22;10527;52.124;5.196;2022-09-09T00:37:53;17.20;99.90
20732;DHT22;10527;52.124;5.196;2022-09-09T00:40:37;17.20;99.90
20732;DHT22;10527;52.124;5.196;2022-09-09T00:43:31;17.30;99.90
20732;DHT22;10527;52.124;5.196;2022-09-09T00:53:22;17.20;99.90
20732;DHT22;10527;52.124;5.196;2022-09-09T00:56:21;17.10;99.90
20732;DHT22;10527;52.124;5.196;2022-09-09T00:59:24;17.10;99.90
20732;DHT22;10527;52.124;5.196;2022-09-09T01:05:46;17.00;99.90
20732;DHT22;10527;52.124;5.196;2022-09-09T01:08:28;16.90;99.90
20732;DHT22;10527;52.124;5.196;2022-09-09T01:11:25;16.80;99.90
20732;DHT22;10527;52.124;5.196;2022-09-09T01:14:05;16.90;99.90
20732;DHT22;10527;52.124;5.196;2022-09-09T01:16:44;16.80;99.90
20732;DHT22;10527;52.124;5.196;2022-09-09T01:19:20;16.80;99.90
20732;DHT22;10527;52.124;5.196;2022-09-09T01:22:21;16.70;99.90
20732;DHT22;10527;52.124;5.196;2022-09-09T01:27:58;16.70;99.90
20732;DHT22;10527;52.124;5.196;2022-09-09T01:30:28;16.70;99.90
20732;DHT22;10527;52.124;5.196;2022-09-09T01:32:58;16.80;99.90
20732;DHT22;10527;52.124;5.196;2022-09-09T01:38:24;16.80;99.90
20732;DHT22;10527;52.124;5.196;2022-09-09T01:40:52;16.70;99.90
20732;DHT22;10527;52.124;5.196;2022-09-09T01:43:23;16.70;99.90
20732;DHT22;10527;52.124;5.196;2022-09-09T01:45:54;16.60;99.90
20732;DHT22;10527;52.124;5.196;2022-09-09T01:48:24;16.70;99.90
20732;DHT22;10527;52.124;5.196;2022-09-09T01:50:51;16.70;99.90
20732;DHT22;10527;52.124;5.196;2022-09-09T01:53:20;16.70;99.90
20732;DHT22;10527;52.124;5.196;2022-09-09T01:56:03;16.70;99.90
20732;DHT22;10527;52.124;5.196;2022-09-09T01:59:03;16.70;99.90
20732;DHT22;10527;52.124;5.196;2022-09-09T02:07:48;16.60;99.90
20732;DHT22;10527;52.124;5.196;2022-09-09T02:10:32;16.60;99.90
20732;DHT22;10527;52.124;5.196;2022-09-09T02:13:18;16.60;99.90
20732;DHT22;10527;52.124;5.196;2022-09-09T02:16:21;16.60;99.90
20732;DHT22;10527;52.124;5.196;2022-09-09T02:19:13;16.50;99.90
20732;DHT22;10527;52.124;5.196;2022-09-09T02:21:45;16.50;99.90
20732;DHT22;10527;52.124;5.196;2022-09-09T02:24:15;16.50;99.90
20732;DHT22;10527;52.124;5.196;2022-09-09T02:26:52;16.50;99.90
20732;DHT22;10527;52.124;5.196;2022-09-09T02:29:34;16.50;99.90
20732;DHT22;10527;52.124;5.196;2022-09-09T02:32:09;16.50;99.90
20732;DHT22;10527;52.124;5.196;2022-09-09T02:34:44;16.50;99.90
20732;DHT22;10527;52.124;5.196;2022-09-09T02:37:19;16.50;99.90
20732;DHT22;10527;52.124;5.196;2022-09-09T02:39:49;16.50;99.90
20732;DHT22;10527;52.124;5.196;2022-09-09T02:42:16;16.50;99.90
20732;DHT22;10527;52.124;5.196;2022-09-09T02:44:44;16.50;99.90
20732;DHT22;10527;52.124;5.196;2022-09-09T02:47:30;16.50;99.90
20732;DHT22;10527;52.124;5.196;2022-09-09T02:53:21;16.40;99.90
20732;DHT22;10527;52.124;5.196;2022-09-09T02:56:03;16.40;99.90
20732;DHT22;10527;52.124;5.196;2022-09-09T02:58:33;16.40;99.90
20732;DHT22;10527;52.124;5.196;2022-09-09T03:01:00;16.40;99.90
20732;DHT22;10527;52.124;5.196;2022-09-09T03:03:29;16.30;99.90
20732;DHT22;10527;52.124;5.196;2022-09-09T03:05:56;16.30;99.90
20732;DHT22;10527;52.124;5.196;2022-09-09T03:08:23;16.30;99.90
20732;DHT22;10527;52.124;5.196;2022-09-09T03:10:51;16.30;99.90
20732;DHT22;10527;52.124;5.196;2022-09-09T03:13:20;16.30;99.90
20732;DHT22;10527;52.124;5.196;2022-09-09T03:15:48;16.30;99.90
20732;DHT22;10527;52.124;5.196;2022-09-09T03:18:15;16.30;99.90
20732;DHT22;10527;52.124;5.196;2022-09-09T03:20:43;16.30;99.90
20732;DHT22;10527;52.124;5.196;2022-09-09T03:23:13;16.10;99.90
20732;DHT22;10527;52.124;5.196;2022-09-09T03:25:49;16.20;99.90
20732;DHT22;10527;52.124;5.196;2022-09-09T03:28:18;16.20;99.90
20732;DHT22;10527;52.124;5.196;2022-09-09T03:30:46;16.20;99.90
20732;DHT22;10527;52.124;5.196;2022-09-09T03:33:13;16.20;99.90
20732;DHT22;10527;52.124;5.196;2022-09-09T03:35:45;16.10;99.90
20732;DHT22;10527;52.124;5.196;2022-09-09T03:38:17;16.00;99.90
20732;DHT22;10527;52.124;5.196;2022-09-09T03:40:51;16.10;99.90
20732;DHT22;10527;52.124;5.196;2022-09-09T03:43:22;16.10;99.90
20732;DHT22;10527;52.124;5.196;2022-09-09T03:45:50;16.10;99.90
20732;DHT22;10527;52.124;5.196;2022-09-09T03:48:19;16.00;99.90
20732;DHT22;10527;52.124;5.196;2022-09-09T03:50:47;16.00;99.90
20732;DHT22;10527;52.124;5.196;2022-09-09T03:53:18;16.00;99.90
20732;DHT22;10527;52.124;5.196;2022-09-09T03:55:51;15.90;99.90
20732;DHT22;10527;52.124;5.196;2022-09-09T03:58:22;15.90;99.90
20732;DHT22;10527;52.124;5.196;2022-09-09T04:00:58;15.90;99.90
20732;DHT22;10527;52.124;5.196;2022-09-09T04:03:27;15.80;99.90
20732;DHT22;10527;52.124;5.196;2022-09-09T04:05:56;15.80;99.90
20732;DHT22;10527;52.124;5.196;2022-09-09T04:08:25;15.90;99.90
20732;DHT22;10527;52.124;5.196;2022-09-09T04:10:53;15.90;99.90
20732;DHT22;10527;52.124;5.196;2022-09-09T04:13:25;15.90;99.90
20732;DHT22;10527;52.124;5.196;2022-09-09T04:15:54;15.90;99.90
20732;DHT22;10527;52.124;5.196;2022-09-09T04:18:23;15.90;99.90
20732;DHT22;10527;52.124;5.196;2022-09-09T04:20:52;15.90;99.90
20732;DHT22;10527;52.124;5.196;2022-09-09T04:23:20;15.90;99.90
20732;DHT22;10527;52.124;5.196;2022-09-09T04:25:51;15.80;99.90
20732;DHT22;10527;52.124;5.196;2022-09-09T04:28:21;15.80;99.90
20732;DHT22;10527;52.124;5.196;2022-09-09T04:30:49;15.80;99.90
20732;DHT22;10527;52.124;5.196;2022-09-09T04:33:15;15.80;99.90
20732;DHT22;10527;52.124;5.196;2022-09-09T04:35:45;15.80;99.90
20732;DHT22;10527;52.124;5.196;2022-09-09T04:38:15;15.80;99.90
20732;DHT22;10527;52.124;5.196;2022-09-09T04:40:46;15.70;99.90
20732;DHT22;10527;52.124;5.196;2022-09-09T04:43:14;15.70;99.90
20732;DHT22;10527;52.124;5.196;2022-09-09T04:45:42;15.80;99.90
20732;DHT22;10527;52.124;5.196;2022-09-09T04:48:10;15.70;99.90
20732;DHT22;10527;52.124;5.196;2022-09-09T04:50:37;15.70;99.90
20732;DHT22;10527;52.124;5.196;2022-09-09T04:53:04;15.70;99.90
20732;DHT22;10527;52.124;5.196;2022-09-09T04:55:34;15.70;99.90
20732;DHT22;10527;52.124;5.196;2022-09-09T04:58:06;15.80;99.90
20732;DHT22;10527;52.124;5.196;2022-09-09T05:00:37;15.70;99.90
20732;DHT22;10527;52.124;5.196;2022-09-09T05:03:05;15.70;99.90
20732;DHT22;10527;52.124;5.196;2022-09-09T05:05:33;15.70;99.90
20732;DHT22;10527;52.124;5.196;2022-09-09T05:08:04;15.70;99.90
20732;DHT22;10527;52.124;5.196;2022-09-09T05:10:33;15.70;99.90
20732;DHT22;10527;52.124;5.196;2022-09-09T05:13:00;15.70;99.90
20732;DHT22;10527;52.124;5.196;2022-09-09T05:15:29;15.70;99.90
20732;DHT22;10527;52.124;5.196;2022-09-09T05:18:10;15.60;99.90
20732;DHT22;10527;52.124;5.196;2022-09-09T05:20:38;15.60;99.90
20732;DHT22;10527;52.124;5.196;2022-09-09T05:23:05;15.70;99.90
20732;DHT22;10527;52.124;5.196;2022-09-09T05:25:32;15.60;99.90
20732;DHT22;10527;52.124;5.196;2022-09-09T05:27:58;15.70;99.90
20732;DHT22;10527;52.124;5.196;2022-09-09T05:30:26;15.60;99.90
20732;DHT22;10527;52.124;5.196;2022-09-09T05:32:56;15.60;99.90
20732;DHT22;10527;52.124;5.196;2022-09-09T05:35:23;15.70;99.90
20732;DHT22;10527;52.124;5.196;2022-09-09T05:37:49;15.60;99.90
20732;DHT22;10527;52.124;5.196;2022-09-09T05:40:16;15.60;99.90
20732;DHT22;10527;52.124;5.196;2022-09-09T05:42:43;15.60;99.90
20732;DHT22;10527;52.124;5.196;2022-09-09T05:45:19;15.60;99.90
20732;DHT22;10527;52.124;5.196;2022-09-09T05:47:51;15.60;99.90
20732;DHT22;10527;52.124;5.196;2022-09-09T05:50:21;15.60;99.90
20732;DHT22;10527;52.124;5.196;2022-09-09T05:52:48;15.60;99.90
20732;DHT22;10527;52.124;5.196;2022-09-09T05:55:16;15.60;99.90
20732;DHT22;10527;52.124;5.196;2022-09-09T05:57:48;15.60;99.90
20732;DHT22;10527;52.124;5.196;2022-09-09T06:00:15;15.70;99.90
20732;DHT22;10527;52.124;5.196;2022-09-09T06:02:42;15.70;99.90
20732;DHT22;10527;52.124;5.196;2022-09-09T06:05:10;15.70;99.90
20732;DHT22;10527;52.124;5.196;2022-09-09T06:07:37;15.80;99.90
20732;DHT22;10527;52.124;5.196;2022-09-09T06:10:04;15.80;99.90
20732;DHT22;10527;52.124;5.196;2022-09-09T06:12:41;15.80;99.90
20732;DHT22;10527;52.124;5.196;2022-09-09T06:15:08;15.80;99.90
20732;DHT22;10527;52.124;5.196;2022-09-09T06:17:35;15.80;99.90
20732;DHT22;10527;52.124;5.196;2022-09-09T06:20:03;15.70;99.90
20732;DHT22;10527;52.124;5.196;2022-09-09T06:22:30;15.80;99.90
20732;DHT22;10527;52.124;5.196;2022-09-09T06:24:57;15.80;99.90
20732;DHT22;10527;52.124;5.196;2022-09-09T06:27:23;15.80;99.90
20732;DHT22;10527;52.124;5.196;2022-09-09T06:29:50;15.90;99.90
20732;DHT22;10527;52.124;5.196;2022-09-09T06:32:17;15.90;99.90
20732;DHT22;10527;52.124;5.196;2022-09-09T06:34:43;15.90;99.90
20732;DHT22;10527;52.124;5.196;2022-09-09T06:37:13;16.10;99.90
20732;DHT22;10527;52.124;5.196;2022-09-09T06:39:40;16.10;99.90
20732;DHT22;10527;52.124;5.196;2022-09-09T06:42:07;16.10;99.90
20732;DHT22;10527;52.124;5.196;2022-09-09T06:44:35;16.10;99.90
20732;DHT22;10527;52.124;5.196;2022-09-09T06:47:02;16.20;99.90
20732;DHT22;10527;52.124;5.196;2022-09-09T06:49:29;16.10;99.90
20732;DHT22;10527;52.124;5.196;2022-09-09T06:51:56;16.20;99.90
20732;DHT22;10527;52.124;5.196;2022-09-09T06:54:24;16.20;99.90
20732;DHT22;10527;52.124;5.196;2022-09-09T06:56:51;16.20;99.90
20732;DHT22;10527;52.124;5.196;2022-09-09T06:59:18;16.30;99.90
20732;DHT22;10527;52.124;5.196;2022-09-09T07:01:45;16.30;99.90
20732;DHT22;10527;52.124;5.196;2022-09-09T07:04:17;16.40;99.90
20732;DHT22;10527;52.124;5.196;2022-09-09T07:06:45;16.30;99.90
20732;DHT22;10527;52.124;5.196;2022-09-09T07:09:22;16.40;99.90
20732;DHT22;10527;52.124;5.196;2022-09-09T07:11:50;16.60;99.90
20732;DHT22;10527;52.124;5.196;2022-09-09T07:14:19;16.70;99.90
20732;DHT22;10527;52.124;5.196;2022-09-09T07:16:46;16.80;99.90
20732;DHT22;10527;52.124;5.196;2022-09-09T07:19:13;16.90;99.90
20732;DHT22;10527;52.124;5.196;2022-09-09T07:21:41;16.90;99.90
20732;DHT22;10527;52.124;5.196;2022-09-09T07:24:09;16.90;99.90
20732;DHT22;10527;52.124;5.196;2022-09-09T07:26:38;16.90;99.90
20732;DHT22;10527;52.124;5.196;2022-09-09T07:29:05;16.90;99.90
20732;DHT22;10527;52.124;5.196;2022-09-09T07:31:35;16.80;99.90
20732;DHT22;10527;52.124;5.196;2022-09-09T07:34:04;16.90;99.90
20732;DHT22;10527;52.124;5.196;2022-09-09T07:36:48;16.90;99.90
20732;DHT22;10527;52.124;5.196;2022-09-09T07:39:15;16.90;99.90
20732;DHT22;10527;52.124;5.196;2022-09-09T07:41:46;16.90;99.90
20732;DHT22;10527;52.124;5.196;2022-09-09T07:44:20;16.90;99.90
20732;DHT22;10527;52.124;5.196;2022-09-09T07:46:48;17.00;99.90
20732;DHT22;10527;52.124;5.196;2022-09-09T07:49:16;17.00;99.90
20732;DHT22;10527;52.124;5.196;2022-09-09T07:52:10;17.10;99.90
20732;DHT22;10527;52.124;5.196;2022-09-09T07:54:41;17.00;99.90
20732;DHT22;10527;52.124;5.196;2022-09-09T07:57:08;17.10;99.90
20732;DHT22;10527;52.124;5.196;2022-09-09T07:59:35;17.10;99.90
20732;DHT22;10527;52.124;5.196;2022-09-09T08:02:01;17.20;99.90
20732;DHT22;10527;52.124;5.196;2022-09-09T08:04:28;17.20;99.90
20732;DHT22;10527;52.124;5.196;2022-09-09T08:06:57;17.10;99.90
20732;DHT22;10527;52.124;5.196;2022-09-09T08:09:26;17.10;99.90
20732;DHT22;10527;52.124;5.196;2022-09-09T08:11:56;17.20;99.90
20732;DHT22;10527;52.124;5.196;2022-09-09T08:14:24;17.20;99.90
20732;DHT22;10527;52.124;5.196;2022-09-09T08:16:51;17.20;99.90
20732;DHT22;10527;52.124;5.196;2022-09-09T08:19:21;17.10;99.90
20732;DHT22;10527;52.124;5.196;2022-09-09T08:21:47;17.20;99.90
20732;DHT22;10527;52.124;5.196;2022-09-09T08:24:16;17.10;99.90
20732;DHT22;10527;52.124;5.196;2022-09-09T08:26:47;17.10;99.90
20732;DHT22;10527;52.124;5.196;2022-09-09T08:29:18;17.10;99.90
20732;DHT22;10527;52.124;5.196;2022-09-09T08:31:50;17.10;99.90
20732;DHT22;10527;52.124;5.196;2022-09-09T08:34:21;17.10;99.90
20732;DHT22;10527;52.124;5.196;2022-09-09T08:36:50;17.10;99.90
20732;DHT22;10527;52.124;5.196;2022-09-09T08:39:18;17.30;99.90
20732;DHT22;10527;52.124;5.196;2022-09-09T08:47:57;17.40;99.90
20732;DHT22;10527;52.124;5.196;2022-09-09T08:50:38;17.40;99.90
20732;DHT22;10527;52.124;5.196;2022-09-09T08:53:18;17.40;99.90
20732;DHT22;10527;52.124;5.196;2022-09-09T08:56:01;17.40;99.90
20732;DHT22;10527;52.124;5.196;2022-09-09T08:58:35;17.40;99.90
20732;DHT22;10527;52.124;5.196;2022-09-09T09:06:59;17.40;99.90
20732;DHT22;10527;52.124;5.196;2022-09-09T09:13:02;17.40;99.90
20732;DHT22;10527;52.124;5.196;2022-09-09T09:15:35;17.50;99.90
20732;DHT22;10527;52.124;5.196;2022-09-09T09:18:05;17.40;99.90
20732;DHT22;10527;52.124;5.196;2022-09-09T09:20:58;17.50;99.90
20732;DHT22;10527;52.124;5.196;2022-09-09T09:23:42;17.50;99.90
20732;DHT22;10527;52.124;5.196;2022-09-09T09:26:15;17.40;99.90
20732;DHT22;10527;52.124;5.196;2022-09-09T09:28:42;17.40;99.90
20732;DHT22;10527;52.124;5.196;2022-09-09T09:31:10;17.50;99.90
20732;DHT22;10527;52.124;5.196;2022-09-09T09:36:13;17.50;99.90
20732;DHT22;10527;52.124;5.196;2022-09-09T09:38:58;17.50;99.90
20732;DHT22;10527;52.124;5.196;2022-09-09T09:41:46;17.50;99.90
20732;DHT22;10527;52.124;5.196;2022-09-09T09:47:15;17.50;99.90
20732;DHT22;10527;52.124;5.196;2022-09-09T09:49:57;17.40;99.90
20732;DHT22;10527;52.124;5.196;2022-09-09T09:52:27;17.40;99.90
20732;DHT22;10527;52.124;5.196;2022-09-09T09:54:59;17.30;99.90
20732;DHT22;10527;52.124;5.196;2022-09-09T09:57:33;17.30;99.90
20732;DHT22;10527;52.124;5.196;2022-09-09T10:00:13;17.30;99.90
20732;DHT22;10527;52.124;5.196;2022-09-09T10:02:43;17.30;99.90
20732;DHT22;10527;52.124;5.196;2022-09-09T10:05:20;17.40;99.90
20732;DHT22;10527;52.124;5.196;2022-09-09T10:08:08;17.50;99.90
20732;DHT22;10527;52.124;5.196;2022-09-09T10:13:35;17.50;99.90
20732;DHT22;10527;52.124;5.196;2022-09-09T10:19:34;17.60;99.90
20732;DHT22;10527;52.124;5.196;2022-09-09T10:33:55;17.50;99.90
20732;DHT22;10527;52.124;5.196;2022-09-09T10:36:57;17.70;99.90
20732;DHT22;10527;52.124;5.196;2022-09-09T10:39:38;17.80;99.90
20732;DHT22;10527;52.124;5.196;2022-09-09T10:42:16;17.80;99.90
20732;DHT22;10527;52.124;5.196;2022-09-09T10:47:39;17.90;99.90
20732;DHT22;10527;52.124;5.196;2022-09-09T10:56:20;18.20;99.90
20732;DHT22;10527;52.124;5.196;2022-09-09T10:59:00;18.20;99.90
20732;DHT22;10527;52.124;5.196;2022-09-09T11:01:38;18.20;99.90
20732;DHT22;10527;52.124;5.196;2022-09-09T11:04:17;18.30;99.90
20732;DHT22;10527;52.124;5.196;2022-09-09T11:07:12;18.30;99.90
20732;DHT22;10527;52.124;5.196;2022-09-09T11:09:54;18.40;99.90
20732;DHT22;10527;52.124;5.196;2022-09-09T11:12:27;18.30;99.90
20732;DHT22;10527;52.124;5.196;2022-09-09T11:15:08;18.30;99.90
20732;DHT22;10527;52.124;5.196;2022-09-09T11:17:53;18.30;99.90
20732;DHT22;10527;52.124;5.196;2022-09-09T11:20:26;18.40;99.90
20732;DHT22;10527;52.124;5.196;2022-09-09T11:23:17;18.40;99.90
20732;DHT22;10527;52.124;5.196;2022-09-09T11:25:55;18.40;99.90
20732;DHT22;10527;52.124;5.196;2022-09-09T11:40:28;18.50;99.90
20732;DHT22;10527;52.124;5.196;2022-09-09T11:43:12;18.30;99.90
20732;DHT22;10527;52.124;5.196;2022-09-09T11:45:42;18.30;99.90
20732;DHT22;10527;52.124;5.196;2022-09-09T11:51:05;18.20;99.90
20732;DHT22;10527;52.124;5.196;2022-09-09T11:56:31;18.10;99.90
20732;DHT22;10527;52.124;5.196;2022-09-09T11:59:26;18.00;99.90
20732;DHT22;10527;52.124;5.196;2022-09-09T12:01:57;18.00;99.90
20732;DHT22;10527;52.124;5.196;2022-09-09T12:04:30;18.10;99.90
20732;DHT22;10527;52.124;5.196;2022-09-09T12:10:20;18.10;99.90
20732;DHT22;10527;52.124;5.196;2022-09-09T12:12:52;18.10;99.90
20732;DHT22;10527;52.124;5.196;2022-09-09T12:15:22;18.10;99.90
20732;DHT22;10527;52.124;5.196;2022-09-09T12:17:58;18.00;99.90
20732;DHT22;10527;52.124;5.196;2022-09-09T12:23:35;17.90;99.90
20732;DHT22;10527;52.124;5.196;2022-09-09T12:32:10;18.20;99.90
20732;DHT22;10527;52.124;5.196;2022-09-09T12:40:20;18.50;99.90
20732;DHT22;10527;52.124;5.196;2022-09-09T12:42:55;18.50;99.90
20732;DHT22;10527;52.124;5.196;2022-09-09T12:45:24;18.60;99.90
20732;DHT22;10527;52.124;5.196;2022-09-09T12:48:09;18.90;99.90
20732;DHT22;10527;52.124;5.196;2022-09-09T12:50:50;19.10;99.90
20732;DHT22;10527;52.124;5.196;2022-09-09T12:56:08;19.20;99.90
20732;DHT22;10527;52.124;5.196;2022-09-09T12:58:47;19.20;99.90
20732;DHT22;10527;52.124;5.196;2022-09-09T13:01:28;19.20;99.90
20732;DHT22;10527;52.124;5.196;2022-09-09T13:04:02;19.10;99.90
20732;DHT22;10527;52.124;5.196;2022-09-09T13:06:30;19.10;99.90
20732;DHT22;10527;52.124;5.196;2022-09-09T13:09:00;18.80;99.90
20732;DHT22;10527;52.124;5.196;2022-09-09T13:11:58;18.80;99.90
20732;DHT22;10527;52.124;5.196;2022-09-09T13:14:29;18.80;99.90
20732;DHT22;10527;52.124;5.196;2022-09-09T13:17:03;18.70;99.90
20732;DHT22;10527;52.124;5.196;2022-09-09T13:19:36;18.60;99.90
20732;DHT22;10527;52.124;5.196;2022-09-09T13:22:16;18.80;99.90
20732;DHT22;10527;52.124;5.196;2022-09-09T13:28:00;18.90;99.90
20732;DHT22;10527;52.124;5.196;2022-09-09T13:30:34;19.30;99.90
20732;DHT22;10527;52.124;5.196;2022-09-09T13:33:21;19.30;99.90
20732;DHT22;10527;52.124;5.196;2022-09-09T13:36:02;19.30;99.90
20732;DHT22;10527;52.124;5.196;2022-09-09T13:38:35;19.30;99.90
20732;DHT22;10527;52.124;5.196;2022-09-09T13:41:25;19.30;99.90
20732;DHT22;10527;52.124;5.196;2022-09-09T13:43:57;19.30;99.90
20732;DHT22;10527;52.124;5.196;2022-09-09T13:46:31;19.30;99.90
20732;DHT22;10527;52.124;5.196;2022-09-09T13:51:43;19.30;99.90
20732;DHT22;10527;52.124;5.196;2022-09-09T13:54:15;19.30;99.90
20732;DHT22;10527;52.124;5.196;2022-09-09T13:56:44;19.30;99.90
20732;DHT22;10527;52.124;5.196;2022-09-09T13:59:19;19.20;99.90
20732;DHT22;10527;52.124;5.196;2022-09-09T14:01:46;19.10;99.90
20732;DHT22;10527;52.124;5.196;2022-09-09T14:04:14;18.90;99.90
20732;DHT22;10527;52.124;5.196;2022-09-09T14:06:42;19.00;99.90
20732;DHT22;10527;52.124;5.196;2022-09-09T14:09:12;19.00;99.90
20732;DHT22;10527;52.124;5.196;2022-09-09T14:11:42;19.00;99.90
20732;DHT22;10527;52.124;5.196;2022-09-09T14:14:11;18.80;99.90
20732;DHT22;10527;52.124;5.196;2022-09-09T14:16:39;18.70;99.90
20732;DHT22;10527;52.124;5.196;2022-09-09T14:19:08;18.70;99.90
20732;DHT22;10527;52.124;5.196;2022-09-09T14:21:36;18.70;99.90
20732;DHT22;10527;52.124;5.196;2022-09-09T14:24:05;18.70;99.90
20732;DHT22;10527;52.124;5.196;2022-09-09T14:26:33;18.70;99.90
20732;DHT22;10527;52.124;5.196;2022-09-09T14:28:59;18.60;99.90
20732;DHT22;10527;52.124;5.196;2022-09-09T14:31:28;18.50;99.90
20732;DHT22;10527;52.124;5.196;2022-09-09T14:33:55;18.50;99.90
20732;DHT22;10527;52.124;5.196;2022-09-09T14:36:22;18.70;99.90
20732;DHT22;10527;52.124;5.196;2022-09-09T14:38:50;19.00;99.90
20732;DHT22;10527;52.124;5.196;2022-09-09T14:41:19;19.40;99.90
20732;DHT22;10527;52.124;5.196;2022-09-09T14:43:48;19.50;99.90
20732;DHT22;10527;52.124;5.196;2022-09-09T14:46:18;19.60;99.90
20732;DHT22;10527;52.124;5.196;2022-09-09T14:48:45;19.80;99.90
20732;DHT22;10527;52.124;5.196;2022-09-09T14:51:20;20.00;99.90
20732;DHT22;10527;52.124;5.196;2022-09-09T14:53:57;20.10;99.90
20732;DHT22;10527;52.124;5.196;2022-09-09T14:56:28;19.90;99.90
20732;DHT22;10527;52.124;5.196;2022-09-09T14:59:07;19.80;99.90
20732;DHT22;10527;52.124;5.196;2022-09-09T15:01:34;19.60;99.90
20732;DHT22;10527;52.124;5.196;2022-09-09T15:04:04;19.50;99.90
20732;DHT22;10527;52.124;5.196;2022-09-09T15:06:36;19.40;99.90
20732;DHT22;10527;52.124;5.196;2022-09-09T15:09:05;19.10;99.90
20732;DHT22;10527;52.124;5.196;2022-09-09T15:11:37;19.00;99.90
20732;DHT22;10527;52.124;5.196;2022-09-09T15:14:07;18.90;99.90
20732;DHT22;10527;52.124;5.196;2022-09-09T15:16:38;19.10;99.90
20732;DHT22;10527;52.124;5.196;2022-09-09T15:19:06;18.90;99.90
20732;DHT22;10527;52.124;5.196;2022-09-09T15:21:37;18.80;99.90
20732;DHT22;10527;52.124;5.196;2022-09-09T15:24:06;18.70;99.90
20732;DHT22;10527;52.124;5.196;2022-09-09T15:26:37;18.60;99.90
20732;DHT22;10527;52.124;5.196;2022-09-09T15:29:05;18.60;99.90
20732;DHT22;10527;52.124;5.196;2022-09-09T15:31:41;18.60;99.90
20732;DHT22;10527;52.124;5.196;2022-09-09T15:34:21;18.70;99.90
20732;DHT22;10527;52.124;5.196;2022-09-09T15:37:10;18.80;99.90
20732;DHT22;10527;52.124;5.196;2022-09-09T15:39:42;18.80;99.90
20732;DHT22;10527;52.124;5.196;2022-09-09T15:42:09;18.80;99.90
20732;DHT22;10527;52.124;5.196;2022-09-09T15:44:42;18.70;99.90
20732;DHT22;10527;52.124;5.196;2022-09-09T15:47:12;18.80;99.90
20732;DHT22;10527;52.124;5.196;2022-09-09T15:49:42;18.70;99.90
20732;DHT22;10527;52.124;5.196;2022-09-09T15:52:10;18.90;99.90
20732;DHT22;10527;52.124;5.196;2022-09-09T15:54:39;18.90;99.90
20732;DHT22;10527;52.124;5.196;2022-09-09T15:57:07;19.00;99.90
20732;DHT22;10527;52.124;5.196;2022-09-09T15:59:38;19.00;99.90
20732;DHT22;10527;52.124;5.196;2022-09-09T16:02:15;19.10;99.90
20732;DHT22;10527;52.124;5.196;2022-09-09T16:04:49;19.00;99.90
20732;DHT22;10527;52.124;5.196;2022-09-09T16:07:31;19.10;99.90
20732;DHT22;10527;52.124;5.196;2022-09-09T16:10:17;19.10;99.90
20732;DHT22;10527;52.124;5.196;2022-09-09T16:12:47;19.00;99.90
20732;DHT22;10527;52.124;5.196;2022-09-09T16:15:15;19.10;99.90
20732;DHT22;10527;52.124;5.196;2022-09-09T16:17:42;19.10;99.90
20732;DHT22;10527;52.124;5.196;2022-09-09T16:20:09;19.00;99.90
20732;DHT22;10527;52.124;5.196;2022-09-09T16:22:38;19.00;99.90
20732;DHT22;10527;52.124;5.196;2022-09-09T16:25:06;18.90;99.90
20732;DHT22;10527;52.124;5.196;2022-09-09T16:27:34;18.60;99.90
20732;DHT22;10527;52.124;5.196;2022-09-09T16:30:02;18.60;99.90
20732;DHT22;10527;52.124;5.196;2022-09-09T16:32:32;18.70;99.90
20732;DHT22;10527;52.124;5.196;2022-09-09T16:35:01;18.60;99.90
20732;DHT22;10527;52.124;5.196;2022-09-09T16:37:29;18.70;99.90
20732;DHT22;10527;52.124;5.196;2022-09-09T16:39:56;18.80;99.90
20732;DHT22;10527;52.124;5.196;2022-09-09T16:42:23;18.80;99.90
20732;DHT22;10527;52.124;5.196;2022-09-09T16:44:50;18.80;99.90
20732;DHT22;10527;52.124;5.196;2022-09-09T16:47:19;18.80;99.90
20732;DHT22;10527;52.124;5.196;2022-09-09T16:49:48;18.80;99.90
20732;DHT22;10527;52.124;5.196;2022-09-09T16:52:15;18.80;99.90
20732;DHT22;10527;52.124;5.196;2022-09-09T16:54:46;18.70;99.90
20732;DHT22;10527;52.124;5.196;2022-09-09T16:57:15;18.60;99.90
20732;DHT22;10527;52.124;5.196;2022-09-09T16:59:42;18.80;99.90
20732;DHT22;10527;52.124;5.196;2022-09-09T17:02:09;18.80;99.90
20732;DHT22;10527;52.124;5.196;2022-09-09T17:04:36;18.80;99.90
20732;DHT22;10527;52.124;5.196;2022-09-09T17:07:05;18.70;99.90
20732;DHT22;10527;52.124;5.196;2022-09-09T17:09:38;18.70;99.90
20732;DHT22;10527;52.124;5.196;2022-09-09T17:12:06;18.70;99.90
20732;DHT22;10527;52.124;5.196;2022-09-09T17:14:33;18.60;99.90
20732;DHT22;10527;52.124;5.196;2022-09-09T17:17:00;18.60;99.90
20732;DHT22;10527;52.124;5.196;2022-09-09T17:19:47;18.50;99.90
20732;DHT22;10527;52.124;5.196;2022-09-09T17:22:13;18.60;99.90
20732;DHT22;10527;52.124;5.196;2022-09-09T17:24:43;18.50;99.90
20732;DHT22;10527;52.124;5.196;2022-09-09T17:27:13;18.60;99.90
20732;DHT22;10527;52.124;5.196;2022-09-09T17:29:40;18.60;99.90
20732;DHT22;10527;52.124;5.196;2022-09-09T17:32:07;18.50;99.90
20732;DHT22;10527;52.124;5.196;2022-09-09T17:34:36;18.50;99.90
20732;DHT22;10527;52.124;5.196;2022-09-09T17:37:05;18.60;99.90
20732;DHT22;10527;52.124;5.196;2022-09-09T17:39:34;18.60;99.90
20732;DHT22;10527;52.124;5.196;2022-09-09T17:42:02;18.60;99.90
20732;DHT22;10527;52.124;5.196;2022-09-09T17:44:29;18.60;99.90
20732;DHT22;10527;52.124;5.196;2022-09-09T17:46:58;18.70;99.90
20732;DHT22;10527;52.124;5.196;2022-09-09T17:49:25;18.70;99.90
20732;DHT22;10527;52.124;5.196;2022-09-09T17:51:52;18.70;99.90
20732;DHT22;10527;52.124;5.196;2022-09-09T17:54:23;18.70;99.90
20732;DHT22;10527;52.124;5.196;2022-09-09T17:56:49;18.70;99.90
20732;DHT22;10527;52.124;5.196;2022-09-09T17:59:17;18.70;99.90
20732;DHT22;10527;52.124;5.196;2022-09-09T18:01:47;18.70;99.90
20732;DHT22;10527;52.124;5.196;2022-09-09T18:04:16;18.70;99.90
20732;DHT22;10527;52.124;5.196;2022-09-09T18:06:49;18.80;99.90
20732;DHT22;10527;52.124;5.196;2022-09-09T18:09:19;18.70;99.90